sensor_id;sensor_type;location;lat;lon;timestamp;P1;durP1;ratioP1;P2;durP2;ratioP2
72949;SDS011;64868;45.710;9.590;2023-05-07T00:02:25;10.50;;;7.20;;
72949;SDS011;64868;45.710;9.590;2023-05-07T00:04:58;9.00;;;5.80;;
72949;SDS011;64868;45.710;9.590;2023-05-07T00:07:30;8.20;;;4.93;;
72949;SDS011;64868;45.710;9.590;2023-05-07T00:10:00;7.55;;;4.57;;
72949;SDS011;64868;45.710;9.590;2023-05-07T00:12:31;6.20;;;3.78;;
72949;SDS011;64868;45.710;9.590;2023-05-07T00:15:01;7.40;;;3.60;;
72949;SDS011;64868;45.710;9.590;2023-05-07T00:17:34;6.25;;;2.70;;
72949;SDS011;64868;45.710;9.590;2023-05-07T00:20:07;5.20;;;2.20;;
72949;SDS011;64868;45.710;9.590;2023-05-07T00:22:37;5.28;;;2.00;;
72949;SDS011;64868;45.710;9.590;2023-05-07T00:25:05;4.45;;;1.90;;
72949;SDS011;64868;45.710;9.590;2023-05-07T00:27:38;6.57;;;2.00;;
72949;SDS011;64868;45.710;9.590;2023-05-07T00:30:09;5.32;;;1.60;;
72949;SDS011;64868;45.710;9.590;2023-05-07T00:32:43;5.38;;;1.85;;
72949;SDS011;64868;45.710;9.590;2023-05-07T00:35:13;7.68;;;1.75;;
72949;SDS011;64868;45.710;9.590;2023-05-07T00:37:46;6.97;;;1.92;;
72949;SDS011;64868;45.710;9.590;2023-05-07T00:40:16;6.30;;;1.88;;
72949;SDS011;64868;45.710;9.590;2023-05-07T00:42:44;5.45;;;1.85;;
72949;SDS011;64868;45.710;9.590;2023-05-07T00:45:14;5.72;;;2.10;;
72949;SDS011;64868;45.710;9.590;2023-05-07T00:47:47;6.53;;;1.73;;
72949;SDS011;64868;45.710;9.590;2023-05-07T00:50:14;6.57;;;1.70;;
72949;SDS011;64868;45.710;9.590;2023-05-07T00:52:44;4.97;;;1.60;;
72949;SDS011;64868;45.710;9.590;2023-05-07T00:55:15;6.90;;;1.60;;
72949;SDS011;64868;45.710;9.590;2023-05-07T00:57:47;5.88;;;1.90;;
72949;SDS011;64868;45.710;9.590;2023-05-07T01:00:19;4.50;;;1.58;;
72949;SDS011;64868;45.710;9.590;2023-05-07T01:02:52;7.07;;;1.80;;
72949;SDS011;64868;45.710;9.590;2023-05-07T01:05:25;9.23;;;1.42;;
72949;SDS011;64868;45.710;9.590;2023-05-07T01:07:56;7.32;;;1.65;;
72949;SDS011;64868;45.710;9.590;2023-05-07T01:10:25;5.60;;;1.48;;
72949;SDS011;64868;45.710;9.590;2023-05-07T01:12:57;5.03;;;1.42;;
72949;SDS011;64868;45.710;9.590;2023-05-07T01:15:31;4.93;;;1.50;;
72949;SDS011;64868;45.710;9.590;2023-05-07T01:18:04;7.00;;;1.70;;
72949;SDS011;64868;45.710;9.590;2023-05-07T01:20:36;9.48;;;1.95;;
72949;SDS011;64868;45.710;9.590;2023-05-07T01:23:09;5.00;;;1.73;;
72949;SDS011;64868;45.710;9.590;2023-05-07T01:25:44;9.05;;;2.10;;
72949;SDS011;64868;45.710;9.590;2023-05-07T01:28:20;14.52;;;2.20;;
72949;SDS011;64868;45.710;9.590;2023-05-07T01:30:51;6.85;;;2.15;;
72949;SDS011;64868;45.710;9.590;2023-05-07T01:33:23;5.55;;;1.75;;
72949;SDS011;64868;45.710;9.590;2023-05-07T01:35:59;6.45;;;2.10;;
72949;SDS011;64868;45.710;9.590;2023-05-07T01:38:33;6.18;;;2.30;;
72949;SDS011;64868;45.710;9.590;2023-05-07T01:41:07;7.18;;;2.08;;
72949;SDS011;64868;45.710;9.590;2023-05-07T01:43:41;6.25;;;1.90;;
72949;SDS011;64868;45.710;9.590;2023-05-07T01:46:14;7.07;;;1.90;;
72949;SDS011;64868;45.710;9.590;2023-05-07T01:48:43;7.07;;;1.88;;
72949;SDS011;64868;45.710;9.590;2023-05-07T01:51:17;5.78;;;2.10;;
72949;SDS011;64868;45.710;9.590;2023-05-07T01:53:47;7.78;;;2.35;;
72949;SDS011;64868;45.710;9.590;2023-05-07T01:56:21;6.75;;;2.00;;
72949;SDS011;64868;45.710;9.590;2023-05-07T01:58:49;6.10;;;2.20;;
72949;SDS011;64868;45.710;9.590;2023-05-07T02:01:18;7.32;;;2.05;;
72949;SDS011;64868;45.710;9.590;2023-05-07T02:03:48;7.05;;;2.00;;
72949;SDS011;64868;45.710;9.590;2023-05-07T02:06:20;5.32;;;1.85;;
72949;SDS011;64868;45.710;9.590;2023-05-07T02:08:53;5.15;;;2.00;;
72949;SDS011;64868;45.710;9.590;2023-05-07T02:11:21;6.60;;;2.15;;
72949;SDS011;64868;45.710;9.590;2023-05-07T02:13:48;7.32;;;1.95;;
72949;SDS011;64868;45.710;9.590;2023-05-07T02:16:21;4.88;;;1.70;;
72949;SDS011;64868;45.710;9.590;2023-05-07T02:18:51;5.18;;;1.77;;
72949;SDS011;64868;45.710;9.590;2023-05-07T02:21:23;5.13;;;1.40;;
72949;SDS011;64868;45.710;9.590;2023-05-07T02:23:56;16.98;;;2.17;;
72949;SDS011;64868;45.710;9.590;2023-05-07T02:26:26;4.82;;;1.40;;
72949;SDS011;64868;45.710;9.590;2023-05-07T02:28:58;4.10;;;1.27;;
72949;SDS011;64868;45.710;9.590;2023-05-07T02:31:31;4.85;;;1.73;;
72949;SDS011;64868;45.710;9.590;2023-05-07T02:34:01;4.55;;;1.60;;
72949;SDS011;64868;45.710;9.590;2023-05-07T02:36:31;4.13;;;1.23;;
72949;SDS011;64868;45.710;9.590;2023-05-07T02:39:03;5.20;;;1.27;;
72949;SDS011;64868;45.710;9.590;2023-05-07T02:41:33;5.35;;;1.48;;
72949;SDS011;64868;45.710;9.590;2023-05-07T02:44:04;4.53;;;1.33;;
72949;SDS011;64868;45.710;9.590;2023-05-07T02:46:31;4.00;;;1.20;;
72949;SDS011;64868;45.710;9.590;2023-05-07T02:49:01;4.47;;;1.30;;
72949;SDS011;64868;45.710;9.590;2023-05-07T02:51:34;4.90;;;1.60;;
72949;SDS011;64868;45.710;9.590;2023-05-07T02:54:06;4.25;;;1.42;;
72949;SDS011;64868;45.710;9.590;2023-05-07T02:56:39;4.80;;;1.58;;
72949;SDS011;64868;45.710;9.590;2023-05-07T02:59:09;4.53;;;1.50;;
72949;SDS011;64868;45.710;9.590;2023-05-07T03:01:39;5.28;;;1.40;;
72949;SDS011;64868;45.710;9.590;2023-05-07T03:04:10;4.35;;;1.40;;
72949;SDS011;64868;45.710;9.590;2023-05-07T03:06:41;4.35;;;1.67;;
72949;SDS011;64868;45.710;9.590;2023-05-07T03:09:11;6.55;;;1.98;;
72949;SDS011;64868;45.710;9.590;2023-05-07T03:11:43;5.30;;;1.50;;
72949;SDS011;64868;45.710;9.590;2023-05-07T03:14:16;5.97;;;1.80;;
72949;SDS011;64868;45.710;9.590;2023-05-07T03:16:49;5.95;;;1.85;;
72949;SDS011;64868;45.710;9.590;2023-05-07T03:19:21;7.00;;;1.90;;
72949;SDS011;64868;45.710;9.590;2023-05-07T03:21:54;5.05;;;1.58;;
72949;SDS011;64868;45.710;9.590;2023-05-07T03:24:26;5.30;;;1.33;;
72949;SDS011;64868;45.710;9.590;2023-05-07T03:26:57;4.85;;;1.88;;
72949;SDS011;64868;45.710;9.590;2023-05-07T03:29:24;4.72;;;1.80;;
72949;SDS011;64868;45.710;9.590;2023-05-07T03:31:55;7.30;;;1.88;;
72949;SDS011;64868;45.710;9.590;2023-05-07T03:34:25;4.90;;;1.63;;
72949;SDS011;64868;45.710;9.590;2023-05-07T03:36:55;6.22;;;1.67;;
72949;SDS011;64868;45.710;9.590;2023-05-07T03:39:27;4.95;;;1.38;;
72949;SDS011;64868;45.710;9.590;2023-05-07T03:42:00;5.32;;;1.83;;
72949;SDS011;64868;45.710;9.590;2023-05-07T03:44:30;8.00;;;1.60;;
72949;SDS011;64868;45.710;9.590;2023-05-07T03:47:03;6.53;;;1.50;;
72949;SDS011;64868;45.710;9.590;2023-05-07T03:49:36;8.32;;;1.90;;
72949;SDS011;64868;45.710;9.590;2023-05-07T03:52:08;4.75;;;1.25;;
72949;SDS011;64868;45.710;9.590;2023-05-07T03:54:41;4.57;;;1.42;;
72949;SDS011;64868;45.710;9.590;2023-05-07T03:57:14;4.20;;;1.10;;
72949;SDS011;64868;45.710;9.590;2023-05-07T03:59:44;4.75;;;1.60;;
72949;SDS011;64868;45.710;9.590;2023-05-07T04:02:14;3.90;;;1.33;;
72949;SDS011;64868;45.710;9.590;2023-05-07T04:04:47;5.38;;;1.40;;
72949;SDS011;64868;45.710;9.590;2023-05-07T04:07:21;8.82;;;1.42;;
72949;SDS011;64868;45.710;9.590;2023-05-07T04:09:54;5.30;;;1.70;;
72949;SDS011;64868;45.710;9.590;2023-05-07T04:12:26;4.97;;;1.77;;
72949;SDS011;64868;45.710;9.590;2023-05-07T04:14:56;5.22;;;1.70;;
72949;SDS011;64868;45.710;9.590;2023-05-07T04:17:29;4.82;;;1.50;;
72949;SDS011;64868;45.710;9.590;2023-05-07T04:20:02;6.28;;;1.38;;
72949;SDS011;64868;45.710;9.590;2023-05-07T04:22:34;4.93;;;1.13;;
72949;SDS011;64868;45.710;9.590;2023-05-07T04:25:07;4.07;;;1.30;;
72949;SDS011;64868;45.710;9.590;2023-05-07T04:27:38;3.67;;;1.23;;
72949;SDS011;64868;45.710;9.590;2023-05-07T04:30:09;5.13;;;1.48;;
72949;SDS011;64868;45.710;9.590;2023-05-07T04:32:41;4.68;;;1.10;;
72949;SDS011;64868;45.710;9.590;2023-05-07T04:35:11;3.60;;;1.27;;
72949;SDS011;64868;45.710;9.590;2023-05-07T04:37:43;3.38;;;1.02;;
72949;SDS011;64868;45.710;9.590;2023-05-07T04:40:16;5.57;;;1.23;;
72949;SDS011;64868;45.710;9.590;2023-05-07T04:42:49;4.57;;;1.13;;
72949;SDS011;64868;45.710;9.590;2023-05-07T04:45:21;6.10;;;1.23;;
72949;SDS011;64868;45.710;9.590;2023-05-07T04:47:54;7.00;;;1.10;;
72949;SDS011;64868;45.710;9.590;2023-05-07T04:50:26;4.60;;;1.30;;
72949;SDS011;64868;45.710;9.590;2023-05-07T04:52:59;5.35;;;1.40;;
72949;SDS011;64868;45.710;9.590;2023-05-07T04:55:30;4.00;;;1.23;;
72949;SDS011;64868;45.710;9.590;2023-05-07T04:58:02;5.07;;;1.42;;
72949;SDS011;64868;45.710;9.590;2023-05-07T05:00:35;6.40;;;1.30;;
72949;SDS011;64868;45.710;9.590;2023-05-07T05:03:06;4.30;;;1.40;;
72949;SDS011;64868;45.710;9.590;2023-05-07T05:05:39;5.35;;;1.27;;
72949;SDS011;64868;45.710;9.590;2023-05-07T05:08:11;5.60;;;1.38;;
72949;SDS011;64868;45.710;9.590;2023-05-07T05:10:44;6.95;;;1.55;;
72949;SDS011;64868;45.710;9.590;2023-05-07T05:13:17;6.72;;;1.25;;
72949;SDS011;64868;45.710;9.590;2023-05-07T05:15:47;6.45;;;1.55;;
72949;SDS011;64868;45.710;9.590;2023-05-07T05:18:18;5.40;;;1.30;;
72949;SDS011;64868;45.710;9.590;2023-05-07T05:20:48;5.75;;;1.30;;
72949;SDS011;64868;45.710;9.590;2023-05-07T05:23:15;5.45;;;1.13;;
72949;SDS011;64868;45.710;9.590;2023-05-07T05:25:46;4.80;;;1.00;;
72949;SDS011;64868;45.710;9.590;2023-05-07T05:28:16;4.75;;;1.17;;
72949;SDS011;64868;45.710;9.590;2023-05-07T05:30:46;5.32;;;1.00;;
72949;SDS011;64868;45.710;9.590;2023-05-07T05:33:16;3.53;;;1.00;;
72949;SDS011;64868;45.710;9.590;2023-05-07T05:35:49;7.03;;;0.93;;
72949;SDS011;64868;45.710;9.590;2023-05-07T05:38:22;4.03;;;1.10;;
72949;SDS011;64868;45.710;9.590;2023-05-07T05:40:54;4.40;;;0.90;;
72949;SDS011;64868;45.710;9.590;2023-05-07T05:43:27;6.93;;;1.00;;
72949;SDS011;64868;45.710;9.590;2023-05-07T05:45:57;6.32;;;1.23;;
72949;SDS011;64868;45.710;9.590;2023-05-07T05:48:27;3.63;;;0.90;;
72949;SDS011;64868;45.710;9.590;2023-05-07T05:50:58;4.50;;;1.00;;
72949;SDS011;64868;45.710;9.590;2023-05-07T05:53:31;4.35;;;1.05;;
72949;SDS011;64868;45.710;9.590;2023-05-07T05:56:03;4.25;;;1.00;;
72949;SDS011;64868;45.710;9.590;2023-05-07T05:58:36;4.93;;;1.10;;
72949;SDS011;64868;45.710;9.590;2023-05-07T06:01:06;4.30;;;1.10;;
72949;SDS011;64868;45.710;9.590;2023-05-07T06:03:37;4.55;;;1.20;;
72949;SDS011;64868;45.710;9.590;2023-05-07T06:06:09;4.70;;;1.20;;
72949;SDS011;64868;45.710;9.590;2023-05-07T06:08:39;5.90;;;1.00;;
72949;SDS011;64868;45.710;9.590;2023-05-07T06:11:10;3.97;;;0.98;;
72949;SDS011;64868;45.710;9.590;2023-05-07T06:13:40;4.90;;;1.20;;
72949;SDS011;64868;45.710;9.590;2023-05-07T06:16:11;6.72;;;1.25;;
72949;SDS011;64868;45.710;9.590;2023-05-07T06:18:43;5.70;;;0.90;;
72949;SDS011;64868;45.710;9.590;2023-05-07T06:21:11;5.53;;;1.20;;
72949;SDS011;64868;45.710;9.590;2023-05-07T06:23:41;3.92;;;0.98;;
72949;SDS011;64868;45.710;9.590;2023-05-07T06:26:10;3.38;;;0.90;;
72949;SDS011;64868;45.710;9.590;2023-05-07T06:28:44;4.63;;;1.00;;
72949;SDS011;64868;45.710;9.590;2023-05-07T06:31:20;3.25;;;1.00;;
72949;SDS011;64868;45.710;9.590;2023-05-07T06:33:56;4.65;;;0.80;;
72949;SDS011;64868;45.710;9.590;2023-05-07T06:36:27;4.40;;;1.20;;
72949;SDS011;64868;45.710;9.590;2023-05-07T06:38:58;5.25;;;0.80;;
72949;SDS011;64868;45.710;9.590;2023-05-07T06:41:30;3.28;;;0.85;;
72949;SDS011;64868;45.710;9.590;2023-05-07T06:44:01;4.80;;;0.98;;
72949;SDS011;64868;45.710;9.590;2023-05-07T06:46:29;3.33;;;0.70;;
72949;SDS011;64868;45.710;9.590;2023-05-07T06:48:59;3.67;;;1.30;;
72949;SDS011;64868;45.710;9.590;2023-05-07T06:51:27;4.72;;;1.20;;
72949;SDS011;64868;45.710;9.590;2023-05-07T06:53:55;4.68;;;1.00;;
72949;SDS011;64868;45.710;9.590;2023-05-07T06:56:23;3.75;;;0.90;;
72949;SDS011;64868;45.710;9.590;2023-05-07T06:58:53;2.17;;;0.73;;
72949;SDS011;64868;45.710;9.590;2023-05-07T07:01:21;4.05;;;0.93;;
72949;SDS011;64868;45.710;9.590;2023-05-07T07:03:53;4.38;;;1.10;;
72949;SDS011;64868;45.710;9.590;2023-05-07T07:06:21;5.72;;;1.10;;
72949;SDS011;64868;45.710;9.590;2023-05-07T07:08:54;6.13;;;1.13;;
72949;SDS011;64868;45.710;9.590;2023-05-07T07:11:21;2.97;;;0.85;;
72949;SDS011;64868;45.710;9.590;2023-05-07T07:13:49;6.22;;;1.27;;
72949;SDS011;64868;45.710;9.590;2023-05-07T07:16:21;4.65;;;0.85;;
72949;SDS011;64868;45.710;9.590;2023-05-07T07:18:54;3.60;;;0.90;;
72949;SDS011;64868;45.710;9.590;2023-05-07T07:21:26;5.15;;;1.00;;
72949;SDS011;64868;45.710;9.590;2023-05-07T07:23:59;2.85;;;0.75;;
72949;SDS011;64868;45.710;9.590;2023-05-07T07:26:31;3.47;;;0.90;;
72949;SDS011;64868;45.710;9.590;2023-05-07T07:29:02;6.95;;;0.95;;
72949;SDS011;64868;45.710;9.590;2023-05-07T07:31:32;3.22;;;0.88;;
72949;SDS011;64868;45.710;9.590;2023-05-07T07:34:04;3.28;;;0.90;;
72949;SDS011;64868;45.710;9.590;2023-05-07T07:36:37;4.40;;;0.90;;
72949;SDS011;64868;45.710;9.590;2023-05-07T07:39:10;4.88;;;1.13;;
72949;SDS011;64868;45.710;9.590;2023-05-07T07:41:40;3.67;;;1.10;;
72949;SDS011;64868;45.710;9.590;2023-05-07T07:44:13;4.55;;;1.10;;
72949;SDS011;64868;45.710;9.590;2023-05-07T07:46:45;3.42;;;0.70;;
72949;SDS011;64868;45.710;9.590;2023-05-07T07:49:16;3.40;;;0.75;;
72949;SDS011;64868;45.710;9.590;2023-05-07T07:51:48;4.97;;;1.00;;
72949;SDS011;64868;45.710;9.590;2023-05-07T07:54:18;3.72;;;0.80;;
72949;SDS011;64868;45.710;9.590;2023-05-07T07:56:48;4.40;;;1.10;;
72949;SDS011;64868;45.710;9.590;2023-05-07T07:59:18;3.33;;;0.98;;
72949;SDS011;64868;45.710;9.590;2023-05-07T08:01:49;5.40;;;1.02;;
72949;SDS011;64868;45.710;9.590;2023-05-07T08:04:21;5.10;;;1.00;;
72949;SDS011;64868;45.710;9.590;2023-05-07T08:06:54;3.92;;;1.10;;
72949;SDS011;64868;45.710;9.590;2023-05-07T08:09:26;4.13;;;1.10;;
72949;SDS011;64868;45.710;9.590;2023-05-07T08:11:59;2.17;;;0.90;;
72949;SDS011;64868;45.710;9.590;2023-05-07T08:14:31;4.72;;;1.30;;
72949;SDS011;64868;45.710;9.590;2023-05-07T08:17:04;3.08;;;0.93;;
72949;SDS011;64868;45.710;9.590;2023-05-07T08:19:37;2.97;;;0.98;;
72949;SDS011;64868;45.710;9.590;2023-05-07T08:22:09;3.72;;;0.82;;
72949;SDS011;64868;45.710;9.590;2023-05-07T08:24:40;3.65;;;0.95;;
72949;SDS011;64868;45.710;9.590;2023-05-07T08:27:12;3.03;;;0.90;;
72949;SDS011;64868;45.710;9.590;2023-05-07T08:29:45;4.07;;;0.95;;
72949;SDS011;64868;45.710;9.590;2023-05-07T08:32:15;3.67;;;1.00;;
72949;SDS011;64868;45.710;9.590;2023-05-07T08:34:48;4.40;;;1.10;;
72949;SDS011;64868;45.710;9.590;2023-05-07T08:37:20;6.18;;;1.20;;
72949;SDS011;64868;45.710;9.590;2023-05-07T08:39:53;5.03;;;0.88;;
72949;SDS011;64868;45.710;9.590;2023-05-07T08:42:23;4.40;;;1.13;;
72949;SDS011;64868;45.710;9.590;2023-05-07T08:44:54;3.53;;;0.90;;
72949;SDS011;64868;45.710;9.590;2023-05-07T08:47:29;4.00;;;1.10;;
72949;SDS011;64868;45.710;9.590;2023-05-07T08:50:04;3.25;;;1.05;;
72949;SDS011;64868;45.710;9.590;2023-05-07T08:52:35;4.70;;;0.90;;
72949;SDS011;64868;45.710;9.590;2023-05-07T08:55:08;4.53;;;1.05;;
72949;SDS011;64868;45.710;9.590;2023-05-07T08:57:39;3.70;;;1.15;;
72949;SDS011;64868;45.710;9.590;2023-05-07T09:00:10;3.65;;;1.15;;
72949;SDS011;64868;45.710;9.590;2023-05-07T09:02:42;7.38;;;3.28;;
72949;SDS011;64868;45.710;9.590;2023-05-07T09:05:12;2.67;;;0.90;;
72949;SDS011;64868;45.710;9.590;2023-05-07T09:07:42;4.38;;;1.02;;
72949;SDS011;64868;45.710;9.590;2023-05-07T09:10:15;4.10;;;0.88;;
72949;SDS011;64868;45.710;9.590;2023-05-07T09:12:47;3.25;;;0.98;;
72949;SDS011;64868;45.710;9.590;2023-05-07T09:15:20;3.88;;;0.77;;
72949;SDS011;64868;45.710;9.590;2023-05-07T09:17:52;3.90;;;0.90;;
72949;SDS011;64868;45.710;9.590;2023-05-07T09:20:28;3.17;;;0.80;;
72949;SDS011;64868;45.710;9.590;2023-05-07T09:23:02;5.15;;;1.00;;
72949;SDS011;64868;45.710;9.590;2023-05-07T09:25:32;3.33;;;0.98;;
72949;SDS011;64868;45.710;9.590;2023-05-07T09:28:04;3.63;;;1.02;;
72949;SDS011;64868;45.710;9.590;2023-05-07T09:30:36;3.10;;;0.90;;
72949;SDS011;64868;45.710;9.590;2023-05-07T09:33:04;2.78;;;0.68;;
72949;SDS011;64868;45.710;9.590;2023-05-07T09:35:37;6.70;;;1.20;;
72949;SDS011;64868;45.710;9.590;2023-05-07T09:38:10;4.28;;;0.93;;
72949;SDS011;64868;45.710;9.590;2023-05-07T09:40:37;5.45;;;1.40;;
72949;SDS011;64868;45.710;9.590;2023-05-07T09:43:11;3.80;;;1.20;;
72949;SDS011;64868;45.710;9.590;2023-05-07T09:45:41;3.85;;;1.10;;
72949;SDS011;64868;45.710;9.590;2023-05-07T09:48:10;3.92;;;1.00;;
72949;SDS011;64868;45.710;9.590;2023-05-07T09:50:48;3.58;;;1.10;;
72949;SDS011;64868;45.710;9.590;2023-05-07T09:53:19;8.10;;;1.48;;
72949;SDS011;64868;45.710;9.590;2023-05-07T09:55:52;5.90;;;1.20;;
72949;SDS011;64868;45.710;9.590;2023-05-07T09:58:26;3.60;;;1.10;;
72949;SDS011;64868;45.710;9.590;2023-05-07T10:00:59;4.18;;;1.08;;
72949;SDS011;64868;45.710;9.590;2023-05-07T10:03:31;4.88;;;0.90;;
72949;SDS011;64868;45.710;9.590;2023-05-07T10:06:25;4.60;;;1.30;;
72949;SDS011;64868;45.710;9.590;2023-05-07T10:08:56;8.18;;;1.10;;
72949;SDS011;64868;45.710;9.590;2023-05-07T10:11:28;3.85;;;1.40;;
72949;SDS011;64868;45.710;9.590;2023-05-07T10:14:01;3.10;;;1.02;;
72949;SDS011;64868;45.710;9.590;2023-05-07T10:16:34;4.50;;;1.27;;
72949;SDS011;64868;45.710;9.590;2023-05-07T10:21:40;5.22;;;1.48;;
72949;SDS011;64868;45.710;9.590;2023-05-07T10:24:29;4.57;;;1.20;;
72949;SDS011;64868;45.710;9.590;2023-05-07T10:27:01;3.42;;;1.20;;
72949;SDS011;64868;45.710;9.590;2023-05-07T10:29:35;2.50;;;0.90;;
72949;SDS011;64868;45.710;9.590;2023-05-07T10:34:53;3.65;;;1.20;;
72949;SDS011;64868;45.710;9.590;2023-05-07T10:39:53;3.08;;;0.98;;
72949;SDS011;64868;45.710;9.590;2023-05-07T10:42:22;5.18;;;1.10;;
72949;SDS011;64868;45.710;9.590;2023-05-07T10:44:54;3.13;;;1.10;;
72949;SDS011;64868;45.710;9.590;2023-05-07T10:47:27;3.38;;;1.02;;
72949;SDS011;64868;45.710;9.590;2023-05-07T10:50:37;9.02;;;1.42;;
72949;SDS011;64868;45.710;9.590;2023-05-07T10:52:41;4.15;;;1.08;;
72949;SDS011;64868;45.710;9.590;2023-05-07T10:55:19;3.92;;;1.23;;
72949;SDS011;64868;45.710;9.590;2023-05-07T10:57:50;7.22;;;3.38;;
72949;SDS011;64868;45.710;9.590;2023-05-07T11:05:37;3.63;;;1.20;;
72949;SDS011;64868;45.710;9.590;2023-05-07T11:08:08;3.65;;;1.20;;
72949;SDS011;64868;45.710;9.590;2023-05-07T11:10:54;4.22;;;1.25;;
72949;SDS011;64868;45.710;9.590;2023-05-07T11:13:45;4.68;;;1.48;;
72949;SDS011;64868;45.710;9.590;2023-05-07T11:16:21;5.88;;;1.40;;
72949;SDS011;64868;45.710;9.590;2023-05-07T11:18:55;4.95;;;1.52;;
72949;SDS011;64868;45.710;9.590;2023-05-07T11:21:33;4.97;;;1.50;;
72949;SDS011;64868;45.710;9.590;2023-05-07T11:24:10;3.97;;;1.20;;
72949;SDS011;64868;45.710;9.590;2023-05-07T11:26:49;3.30;;;1.30;;
72949;SDS011;64868;45.710;9.590;2023-05-07T11:29:22;4.50;;;1.40;;
72949;SDS011;64868;45.710;9.590;2023-05-07T11:31:55;4.43;;;1.10;;
72949;SDS011;64868;45.710;9.590;2023-05-07T11:34:27;5.50;;;1.42;;
72949;SDS011;64868;45.710;9.590;2023-05-07T11:37:00;3.78;;;1.20;;
72949;SDS011;64868;45.710;9.590;2023-05-07T11:39:33;3.47;;;1.33;;
72949;SDS011;64868;45.710;9.590;2023-05-07T11:42:03;4.13;;;1.30;;
72949;SDS011;64868;45.710;9.590;2023-05-07T11:44:41;5.80;;;1.40;;
72949;SDS011;64868;45.710;9.590;2023-05-07T11:47:09;5.00;;;2.10;;
72949;SDS011;64868;45.710;9.590;2023-05-07T11:49:44;5.85;;;1.70;;
72949;SDS011;64868;45.710;9.590;2023-05-07T11:52:24;4.93;;;1.30;;
72949;SDS011;64868;45.710;9.590;2023-05-07T11:54:57;8.63;;;1.50;;
72949;SDS011;64868;45.710;9.590;2023-05-07T11:57:28;4.85;;;1.63;;
72949;SDS011;64868;45.710;9.590;2023-05-07T12:00:00;5.90;;;1.67;;
72949;SDS011;64868;45.710;9.590;2023-05-07T12:02:33;3.70;;;1.30;;
72949;SDS011;64868;45.710;9.590;2023-05-07T12:05:03;4.78;;;1.30;;
72949;SDS011;64868;45.710;9.590;2023-05-07T12:07:36;3.97;;;1.60;;
72949;SDS011;64868;45.710;9.590;2023-05-07T12:10:09;4.88;;;1.63;;
72949;SDS011;64868;45.710;9.590;2023-05-07T12:12:42;4.15;;;1.60;;
72949;SDS011;64868;45.710;9.590;2023-05-07T12:15:16;3.80;;;1.45;;
72949;SDS011;64868;45.710;9.590;2023-05-07T12:17:49;4.75;;;1.42;;
72949;SDS011;64868;45.710;9.590;2023-05-07T12:20:17;5.40;;;1.50;;
72949;SDS011;64868;45.710;9.590;2023-05-07T12:22:47;4.53;;;1.60;;
72949;SDS011;64868;45.710;9.590;2023-05-07T12:25:18;6.03;;;1.42;;
72949;SDS011;64868;45.710;9.590;2023-05-07T12:27:51;4.15;;;1.50;;
72949;SDS011;64868;45.710;9.590;2023-05-07T12:30:19;6.40;;;1.77;;
72949;SDS011;64868;45.710;9.590;2023-05-07T12:32:52;5.93;;;1.80;;
72949;SDS011;64868;45.710;9.590;2023-05-07T12:35:25;6.25;;;1.80;;
72949;SDS011;64868;45.710;9.590;2023-05-07T12:38:14;5.60;;;1.67;;
72949;SDS011;64868;45.710;9.590;2023-05-07T12:40:44;4.22;;;1.60;;
72949;SDS011;64868;45.710;9.590;2023-05-07T12:43:33;4.00;;;1.60;;
72949;SDS011;64868;45.710;9.590;2023-05-07T12:46:04;4.38;;;1.80;;
72949;SDS011;64868;45.710;9.590;2023-05-07T12:48:37;3.85;;;1.33;;
72949;SDS011;64868;45.710;9.590;2023-05-07T12:51:10;7.30;;;1.77;;
72949;SDS011;64868;45.710;9.590;2023-05-07T12:53:43;5.47;;;2.00;;
72949;SDS011;64868;45.710;9.590;2023-05-07T12:56:16;5.13;;;1.80;;
72949;SDS011;64868;45.710;9.590;2023-05-07T12:58:48;4.90;;;1.92;;
72949;SDS011;64868;45.710;9.590;2023-05-07T13:01:18;4.63;;;1.85;;
72949;SDS011;64868;45.710;9.590;2023-05-07T13:03:51;4.75;;;1.90;;
72949;SDS011;64868;45.710;9.590;2023-05-07T13:06:23;4.78;;;1.80;;
72949;SDS011;64868;45.710;9.590;2023-05-07T13:08:53;6.20;;;1.83;;
72949;SDS011;64868;45.710;9.590;2023-05-07T13:11:26;5.80;;;1.80;;
72949;SDS011;64868;45.710;9.590;2023-05-07T13:13:59;11.43;;;2.05;;
72949;SDS011;64868;45.710;9.590;2023-05-07T13:16:26;4.78;;;1.90;;
72949;SDS011;64868;45.710;9.590;2023-05-07T13:18:59;5.63;;;1.88;;
72949;SDS011;64868;45.710;9.590;2023-05-07T13:21:29;4.82;;;1.73;;
72949;SDS011;64868;45.710;9.590;2023-05-07T13:23:59;4.10;;;1.60;;
72949;SDS011;64868;45.710;9.590;2023-05-07T13:26:26;5.13;;;2.10;;
72949;SDS011;64868;45.710;9.590;2023-05-07T13:28:54;5.68;;;1.90;;
72949;SDS011;64868;45.710;9.590;2023-05-07T13:31:25;4.68;;;2.00;;
72949;SDS011;64868;45.710;9.590;2023-05-07T13:33:52;5.85;;;2.08;;
72949;SDS011;64868;45.710;9.590;2023-05-07T13:36:22;7.05;;;2.08;;
72949;SDS011;64868;45.710;9.590;2023-05-07T13:38:55;4.18;;;1.60;;
72949;SDS011;64868;45.710;9.590;2023-05-07T13:41:28;5.10;;;2.03;;
72949;SDS011;64868;45.710;9.590;2023-05-07T13:43:58;5.55;;;2.10;;
72949;SDS011;64868;45.710;9.590;2023-05-07T13:46:31;5.80;;;2.10;;
72949;SDS011;64868;45.710;9.590;2023-05-07T13:49:02;5.40;;;2.30;;
72949;SDS011;64868;45.710;9.590;2023-05-07T13:51:34;5.13;;;2.03;;
72949;SDS011;64868;45.710;9.590;2023-05-07T13:54:07;5.30;;;1.83;;
72949;SDS011;64868;45.710;9.590;2023-05-07T13:56:39;5.68;;;2.03;;
72949;SDS011;64868;45.710;9.590;2023-05-07T13:59:10;4.88;;;1.85;;
72949;SDS011;64868;45.710;9.590;2023-05-07T14:01:42;5.95;;;2.05;;
72949;SDS011;64868;45.710;9.590;2023-05-07T14:04:15;5.05;;;1.50;;
72949;SDS011;64868;45.710;9.590;2023-05-07T14:06:45;5.03;;;1.98;;
72949;SDS011;64868;45.710;9.590;2023-05-07T14:09:13;4.65;;;2.00;;
72949;SDS011;64868;45.710;9.590;2023-05-07T14:11:43;4.72;;;1.88;;
72949;SDS011;64868;45.710;9.590;2023-05-07T14:14:14;5.07;;;2.15;;
72949;SDS011;64868;45.710;9.590;2023-05-07T14:16:45;5.07;;;2.25;;
72949;SDS011;64868;45.710;9.590;2023-05-07T14:19:17;4.60;;;2.03;;
72949;SDS011;64868;45.710;9.590;2023-05-07T14:21:48;5.45;;;2.33;;
72949;SDS011;64868;45.710;9.590;2023-05-07T14:24:23;6.20;;;2.22;;
72949;SDS011;64868;45.710;9.590;2023-05-07T14:26:59;4.80;;;2.08;;
72949;SDS011;64868;45.710;9.590;2023-05-07T14:29:32;5.38;;;1.80;;
72949;SDS011;64868;45.710;9.590;2023-05-07T14:32:04;5.13;;;1.90;;
72949;SDS011;64868;45.710;9.590;2023-05-07T14:34:35;4.75;;;1.83;;
72949;SDS011;64868;45.710;9.590;2023-05-07T14:37:05;4.95;;;1.90;;
72949;SDS011;64868;45.710;9.590;2023-05-07T14:39:30;5.50;;;1.83;;
72949;SDS011;64868;45.710;9.590;2023-05-07T14:41:58;5.95;;;1.95;;
72949;SDS011;64868;45.710;9.590;2023-05-07T14:44:30;4.50;;;1.60;;
72949;SDS011;64868;45.710;9.590;2023-05-07T14:47:00;4.85;;;2.08;;
72949;SDS011;64868;45.710;9.590;2023-05-07T14:49:30;3.92;;;1.80;;
72949;SDS011;64868;45.710;9.590;2023-05-07T14:52:03;5.70;;;2.00;;
72949;SDS011;64868;45.710;9.590;2023-05-07T14:54:36;4.10;;;1.77;;
72949;SDS011;64868;45.710;9.590;2023-05-07T14:57:10;5.20;;;1.95;;
72949;SDS011;64868;45.710;9.590;2023-05-07T14:59:41;4.90;;;2.03;;
72949;SDS011;64868;45.710;9.590;2023-05-07T15:02:06;4.75;;;2.00;;
72949;SDS011;64868;45.710;9.590;2023-05-07T15:04:37;4.68;;;1.42;;
72949;SDS011;64868;45.710;9.590;2023-05-07T15:07:05;5.60;;;1.85;;
72949;SDS011;64868;45.710;9.590;2023-05-07T15:09:35;5.63;;;2.00;;
72949;SDS011;64868;45.710;9.590;2023-05-07T15:12:07;5.45;;;2.00;;
72949;SDS011;64868;45.710;9.590;2023-05-07T15:14:38;6.13;;;2.20;;
72949;SDS011;64868;45.710;9.590;2023-05-07T15:17:06;4.60;;;1.63;;
72949;SDS011;64868;45.710;9.590;2023-05-07T15:19:35;4.03;;;1.50;;
72949;SDS011;64868;45.710;9.590;2023-05-07T15:22:08;4.53;;;2.00;;
72949;SDS011;64868;45.710;9.590;2023-05-07T15:24:38;4.55;;;1.65;;
72949;SDS011;64868;45.710;9.590;2023-05-07T15:27:14;4.10;;;1.88;;
72949;SDS011;64868;45.710;9.590;2023-05-07T15:29:42;4.82;;;2.00;;